createdAt,value
2018-06-25T00:02:13.455Z,13.00
2018-06-25T00:05:18.470Z,13.00
2018-06-25T00:08:24.098Z,13.00
2018-06-25T00:11:28.997Z,13.00
2018-06-25T00:14:33.723Z,13.00
2018-06-25T00:17:39.310Z,13.00
2018-06-25T00:20:44.109Z,12.90
2018-06-25T00:23:48.959Z,12.90
2018-06-25T00:26:53.590Z,13.10
2018-06-25T00:29:59.250Z,13.20
2018-06-25T00:33:04.269Z,13.10
2018-06-25T00:36:09.226Z,13.00
2018-06-25T00:39:14.049Z,13.00
2018-06-25T00:42:19.013Z,13.00
2018-06-25T00:45:23.820Z,13.20
2018-06-25T00:48:29.295Z,13.10
2018-06-25T00:51:33.994Z,13.00
2018-06-25T00:54:38.735Z,13.00
2018-06-25T00:57:43.766Z,13.10
2018-06-25T01:00:48.804Z,13.00
2018-06-25T01:03:53.725Z,12.90
2018-06-25T01:06:59.022Z,12.90
2018-06-25T01:10:04.209Z,13.00
2018-06-25T01:13:09.175Z,13.00
2018-06-25T01:16:13.883Z,13.00
2018-06-25T01:19:19.224Z,13.00
2018-06-25T01:22:24.463Z,12.90
2018-06-25T01:25:29.453Z,13.00
2018-06-25T01:28:34.426Z,13.00
2018-06-25T01:31:42.308Z,13.10
2018-06-25T01:34:47.173Z,13.20
2018-06-25T01:37:52.074Z,13.30
2018-06-25T01:40:56.905Z,13.20
2018-06-25T01:44:01.781Z,13.30
2018-06-25T01:47:06.801Z,13.30
2018-06-25T01:50:12.944Z,13.30
2018-06-25T01:53:18.287Z,13.20
2018-06-25T01:56:23.318Z,13.20
2018-06-25T01:59:28.156Z,13.20
2018-06-25T02:02:32.915Z,13.40
2018-06-25T02:05:37.951Z,13.30
2018-06-25T02:08:43.100Z,13.10
2018-06-25T02:11:47.785Z,13.00
2018-06-25T02:14:52.292Z,12.90
2018-06-25T02:17:57.278Z,12.90
2018-06-25T02:21:01.800Z,12.80
2018-06-25T02:24:06.737Z,12.70
2018-06-25T02:27:11.558Z,12.80
2018-06-25T02:30:16.726Z,13.10
2018-06-25T02:33:21.981Z,13.10
2018-06-25T02:36:27.124Z,13.00
2018-06-25T02:39:31.958Z,13.00
2018-06-25T02:42:36.821Z,12.90
2018-06-25T02:45:41.609Z,13.00
2018-06-25T02:48:46.293Z,13.00
2018-06-25T02:51:51.761Z,13.20
2018-06-25T02:54:56.511Z,13.20
2018-06-25T02:58:01.514Z,13.20
2018-06-25T03:01:06.629Z,13.10
2018-06-25T03:04:11.364Z,13.10
2018-06-25T03:07:16.238Z,13.00
2018-06-25T03:10:21.973Z,12.90
2018-06-25T03:13:26.605Z,12.80
2018-06-25T03:19:41.365Z,12.70
2018-06-25T03:22:46.487Z,12.60
2018-06-25T03:25:51.267Z,12.60
2018-06-25T03:28:56.312Z,12.50
2018-06-25T03:32:01.003Z,12.50
2018-06-25T03:35:06.193Z,12.50
2018-06-25T03:38:11.185Z,12.70
2018-06-25T03:41:15.766Z,12.70
2018-06-25T03:44:20.587Z,12.70
2018-06-25T03:47:25.502Z,12.60
2018-06-25T03:50:30.855Z,12.60
2018-06-25T03:53:35.980Z,12.70
2018-06-25T03:56:42.596Z,12.80
2018-06-25T03:59:48.040Z,13.00
2018-06-25T04:02:52.894Z,13.10
2018-06-25T04:05:58.077Z,13.20
2018-06-25T04:09:03.921Z,13.00
2018-06-25T04:12:09.645Z,13.00
2018-06-25T04:15:14.838Z,13.30
2018-06-25T04:18:19.765Z,13.20
2018-06-25T04:21:24.606Z,13.30
2018-06-25T04:24:29.324Z,13.40
2018-06-25T04:27:34.509Z,13.40
2018-06-25T04:30:39.358Z,13.60
2018-06-25T04:33:44.183Z,13.60
2018-06-25T04:36:48.857Z,13.80
2018-06-25T04:39:53.583Z,13.80
2018-06-25T04:42:58.656Z,13.60
2018-06-25T04:46:03.543Z,13.60
2018-06-25T04:49:08.678Z,13.60
2018-06-25T04:52:13.587Z,13.40
2018-06-25T04:55:18.662Z,13.30
2018-06-25T04:58:23.533Z,13.30
2018-06-25T05:01:28.500Z,13.30
2018-06-25T05:04:33.271Z,13.40
2018-06-25T05:07:38.640Z,13.50
2018-06-25T05:10:43.778Z,13.60
2018-06-25T05:13:48.617Z,13.70
2018-06-25T05:16:53.200Z,13.70
2018-06-25T05:19:57.931Z,13.80
2018-06-25T05:23:02.773Z,13.70
2018-06-25T05:26:07.727Z,13.60
2018-06-25T05:29:12.404Z,13.70
2018-06-25T05:32:17.503Z,13.80
2018-06-25T05:35:22.450Z,13.80
2018-06-25T05:38:27.003Z,13.90
2018-06-25T05:41:31.521Z,14.00
2018-06-25T05:44:36.185Z,14.00
2018-06-25T05:47:41.019Z,13.90
2018-06-25T05:50:45.961Z,14.00
2018-06-25T05:53:50.991Z,14.10
2018-06-25T05:56:55.928Z,14.20
2018-06-25T06:00:01.079Z,14.20
2018-06-25T06:03:05.993Z,14.30
2018-06-25T06:06:10.579Z,14.20
2018-06-25T06:09:15.360Z,14.40
2018-06-25T06:12:20.140Z,14.50
2018-06-25T06:15:24.811Z,14.50
2018-06-25T06:18:29.559Z,14.50
2018-06-25T06:21:34.275Z,14.50
2018-06-25T06:24:39.667Z,14.40
2018-06-25T06:27:44.764Z,14.60
2018-06-25T06:30:49.712Z,14.90
2018-06-25T06:33:54.867Z,14.90
2018-06-25T06:36:59.986Z,15.10
2018-06-25T06:40:04.974Z,14.90
2018-06-25T06:46:14.077Z,15.00
2018-06-25T06:49:19.035Z,15.20
2018-06-25T06:52:24.026Z,15.40
2018-06-25T06:55:29.972Z,15.50
2018-06-25T06:58:34.820Z,15.50
2018-06-25T07:01:40.915Z,15.60
2018-06-25T07:04:45.995Z,15.60
2018-06-25T07:07:50.698Z,15.20
2018-06-25T07:10:55.459Z,15.10
2018-06-25T07:13:59.910Z,15.40
2018-06-25T07:17:04.977Z,15.30
2018-06-25T07:20:09.722Z,15.20
2018-06-25T07:23:14.757Z,15.00
2018-06-25T07:26:23.261Z,15.10
2018-06-25T07:29:28.172Z,15.40
2018-06-25T07:32:32.827Z,15.30
2018-06-25T07:35:38.742Z,15.20
2018-06-25T07:38:43.892Z,16.30
2018-06-25T07:41:48.597Z,17.30
2018-06-25T07:44:53.411Z,18.30
2018-06-25T07:47:58.509Z,20.80
2018-06-25T07:51:03.747Z,20.80
2018-06-25T07:54:09.082Z,18.70
2018-06-25T07:57:13.877Z,18.00
2018-06-25T08:00:18.510Z,17.70
2018-06-25T08:03:23.568Z,17.50
2018-06-25T08:06:28.456Z,17.30
2018-06-25T08:09:33.343Z,18.00
2018-06-25T08:12:38.465Z,17.90
2018-06-25T08:15:43.875Z,18.90
2018-06-25T08:18:49.016Z,21.20
2018-06-25T08:21:53.967Z,20.30
2018-06-25T08:24:58.701Z,19.70
2018-06-25T08:28:03.644Z,18.70
2018-06-25T08:31:08.332Z,17.90
2018-06-25T08:34:13.645Z,17.60
2018-06-25T08:37:18.640Z,17.20
2018-06-25T08:40:23.389Z,17.00
2018-06-25T08:43:29.255Z,17.10
2018-06-25T08:46:34.166Z,17.50
2018-06-25T08:49:39.368Z,17.70
2018-06-25T08:52:44.464Z,19.10
2018-06-25T08:55:49.188Z,20.00
2018-06-25T08:58:54.101Z,19.90
2018-06-25T09:01:59.060Z,20.10
2018-06-25T09:05:03.967Z,19.90
2018-06-25T09:08:08.756Z,19.10
2018-06-25T09:11:20.656Z,18.70
2018-06-25T09:14:25.685Z,18.80
2018-06-25T09:17:30.782Z,18.30
2018-06-25T09:20:35.564Z,18.50
2018-06-25T09:23:40.964Z,20.00
2018-06-25T09:26:45.738Z,20.40
2018-06-25T09:29:50.365Z,21.70
2018-06-25T09:32:55.508Z,23.10
2018-06-25T09:36:00.705Z,22.20
2018-06-25T09:39:08.306Z,21.70
2018-06-25T09:42:13.098Z,20.50
2018-06-25T09:45:17.917Z,20.30
2018-06-25T09:48:22.538Z,19.90
2018-06-25T09:51:28.161Z,20.20
2018-06-25T09:54:33.092Z,20.30
2018-06-25T09:57:38.797Z,19.30
2018-06-25T10:00:49.057Z,19.30
2018-06-25T10:03:54.125Z,19.50
2018-06-25T10:06:59.230Z,21.40
2018-06-25T10:10:04.123Z,21.90
2018-06-25T10:13:09.095Z,22.70
2018-06-25T10:16:14.294Z,23.40
2018-06-25T10:19:19.214Z,23.60
2018-06-25T10:22:24.069Z,22.20
2018-06-25T10:25:29.099Z,20.90
2018-06-25T10:28:34.916Z,20.10
2018-06-25T10:34:44.793Z,20.00
2018-06-25T10:37:50.016Z,20.10
2018-06-25T10:40:54.984Z,21.00
2018-06-25T10:43:59.966Z,22.20
2018-06-25T10:47:05.040Z,23.10
2018-06-25T10:50:10.315Z,23.60
2018-06-25T10:53:15.364Z,24.80
2018-06-25T10:56:19.966Z,24.90
2018-06-25T10:59:24.817Z,24.20
2018-06-25T11:02:29.782Z,23.60
2018-06-25T11:05:34.619Z,23.20
2018-06-25T11:08:40.836Z,23.00
2018-06-25T11:11:45.719Z,22.40
2018-06-25T11:14:50.705Z,22.20
2018-06-25T11:17:55.529Z,22.40
2018-06-25T11:21:00.515Z,22.80
2018-06-25T11:24:05.459Z,22.10
2018-06-25T11:27:10.424Z,21.30
2018-06-25T11:30:15.097Z,21.80
2018-06-25T11:33:20.140Z,22.20
2018-06-25T11:36:25.134Z,22.30
2018-06-25T11:39:29.930Z,22.60
2018-06-25T11:42:34.703Z,22.60
2018-06-25T11:45:40.577Z,22.40
2018-06-25T11:48:46.166Z,22.20
2018-06-25T11:51:50.834Z,21.70
2018-06-25T11:54:55.657Z,22.00
2018-06-25T11:58:00.271Z,22.20
2018-06-25T12:01:04.978Z,22.20
2018-06-25T12:04:09.737Z,22.70
2018-06-25T12:07:14.892Z,22.30
2018-06-25T12:10:20.720Z,22.30
2018-06-25T12:13:25.747Z,22.00
2018-06-25T12:16:30.694Z,22.20
2018-06-25T12:19:35.853Z,21.80
2018-06-25T12:22:42.123Z,21.80
2018-06-25T12:25:47.093Z,21.70
2018-06-25T12:28:52.853Z,21.30
2018-06-25T12:31:57.622Z,21.30
2018-06-25T12:35:02.538Z,21.20
2018-06-25T12:38:07.439Z,21.40
2018-06-25T12:41:12.133Z,21.20
2018-06-25T12:44:17.082Z,21.40
2018-06-25T12:47:21.703Z,21.50
2018-06-25T12:50:26.998Z,21.70
2018-06-25T12:53:31.998Z,21.60
2018-06-25T12:56:36.910Z,21.50
2018-06-25T12:59:42.606Z,21.60
2018-06-25T13:02:47.409Z,22.10
2018-06-25T13:05:52.255Z,22.20
2018-06-25T13:08:57.116Z,22.40
2018-06-25T13:12:01.902Z,22.00
2018-06-25T13:15:07.228Z,22.20
2018-06-25T13:18:12.204Z,22.40
2018-06-25T13:21:16.840Z,22.40
2018-06-25T13:24:21.905Z,22.30
2018-06-25T13:27:27.071Z,22.00
2018-06-25T13:30:31.691Z,22.30
2018-06-25T13:33:36.433Z,22.40
2018-06-25T13:36:42.623Z,22.10
2018-06-25T13:39:47.530Z,21.70
2018-06-25T13:42:52.780Z,21.90
2018-06-25T13:45:58.436Z,22.10
2018-06-25T13:49:03.817Z,21.90
2018-06-25T13:52:08.600Z,22.20
2018-06-25T13:55:13.540Z,22.20
2018-06-25T13:58:18.478Z,22.10
2018-06-25T14:01:23.288Z,22.10
2018-06-25T14:04:28.561Z,22.00
2018-06-25T14:07:34.013Z,22.00
2018-06-25T14:10:39.810Z,22.00
2018-06-25T14:13:44.897Z,22.00
2018-06-25T14:16:49.867Z,22.20
2018-06-25T14:19:54.359Z,22.20
2018-06-25T14:22:59.403Z,21.80
2018-06-25T14:26:06.865Z,22.00
2018-06-25T14:29:16.738Z,22.00
2018-06-25T14:32:26.568Z,21.70
2018-06-25T14:35:31.727Z,21.70
2018-06-25T14:38:37.995Z,21.60
2018-06-25T14:41:42.790Z,21.90
2018-06-25T14:44:47.465Z,22.30
2018-06-25T14:47:51.985Z,22.10
2018-06-25T14:50:56.869Z,22.10
2018-06-25T14:54:03.096Z,21.80
2018-06-25T14:57:07.873Z,21.80
2018-06-25T15:00:16.616Z,21.80
2018-06-25T15:03:21.541Z,21.70
2018-06-25T15:06:26.121Z,21.60
2018-06-25T15:09:30.818Z,21.50
2018-06-25T15:12:38.714Z,21.50
2018-06-25T15:15:43.602Z,21.70
2018-06-25T15:18:48.424Z,21.70
2018-06-25T15:21:53.692Z,21.40
2018-06-25T15:24:58.940Z,21.40
2018-06-25T15:28:03.779Z,21.20
2018-06-25T15:31:08.528Z,21.00
2018-06-25T15:34:13.149Z,20.90
2018-06-25T15:37:18.083Z,20.70
2018-06-25T15:40:23.248Z,20.90
2018-06-25T15:43:28.448Z,21.00
2018-06-25T15:46:33.691Z,20.80
2018-06-25T15:49:39.925Z,20.80
2018-06-25T15:52:45.111Z,20.90
2018-06-25T15:55:50.274Z,21.10
2018-06-25T15:59:00.546Z,21.00
2018-06-25T16:02:05.310Z,20.90
2018-06-25T16:05:09.870Z,20.70
2018-06-25T16:08:14.719Z,20.70
2018-06-25T16:11:19.590Z,20.60
2018-06-25T16:14:24.350Z,20.90
2018-06-25T16:17:29.235Z,21.00
2018-06-25T16:20:34.059Z,20.70
2018-06-25T16:23:38.931Z,20.80
2018-06-25T16:26:43.876Z,20.80
2018-06-25T16:29:49.084Z,20.80
2018-06-25T16:32:54.306Z,20.40
2018-06-25T16:35:59.177Z,20.40
2018-06-25T16:39:04.483Z,20.20
2018-06-25T16:42:09.244Z,20.20
2018-06-25T16:45:13.831Z,20.00
2018-06-25T16:48:18.736Z,19.90
2018-06-25T16:51:24.091Z,19.90
2018-06-25T16:54:28.842Z,19.90
2018-06-25T16:57:33.972Z,19.90
2018-06-25T17:00:39.441Z,19.90
2018-06-25T17:03:43.953Z,19.80
2018-06-25T17:06:48.754Z,19.70
2018-06-25T17:09:53.491Z,19.70
2018-06-25T17:12:58.178Z,19.60
2018-06-25T17:16:02.871Z,19.60
2018-06-25T17:19:08.836Z,19.70
2018-06-25T17:22:13.563Z,19.70
2018-06-25T17:25:18.301Z,19.60
2018-06-25T17:28:23.464Z,19.50
2018-06-25T17:31:31.002Z,19.40
2018-06-25T17:34:35.954Z,19.40
2018-06-25T17:37:41.015Z,19.30
2018-06-25T17:40:45.634Z,19.40
2018-06-25T17:43:50.544Z,19.30
2018-06-25T17:46:55.156Z,19.20
2018-06-25T17:50:00.006Z,18.90
2018-06-25T17:53:05.000Z,18.80
2018-06-25T17:56:09.870Z,18.80
2018-06-25T17:59:14.480Z,18.80
2018-06-25T18:02:19.479Z,18.90
2018-06-25T18:05:24.534Z,18.90
2018-06-25T18:08:29.407Z,19.00
2018-06-25T18:11:34.108Z,19.00
2018-06-25T18:14:39.563Z,19.00
2018-06-25T18:17:44.412Z,18.90
2018-06-25T18:20:49.826Z,18.80
2018-06-25T18:23:54.630Z,18.80
2018-06-25T18:26:59.160Z,18.80
2018-06-25T18:30:03.723Z,18.80
2018-06-25T18:33:08.473Z,18.70
2018-06-25T18:36:13.119Z,18.70
2018-06-25T18:39:17.904Z,18.70
2018-06-25T18:42:22.352Z,18.70
2018-06-25T18:45:26.907Z,18.80
2018-06-25T18:48:32.020Z,18.70
2018-06-25T18:51:36.682Z,18.70
2018-06-25T18:54:42.377Z,18.60
2018-06-25T18:57:47.339Z,18.50
2018-06-25T19:00:51.991Z,18.40
2018-06-25T19:03:56.857Z,18.30
2018-06-25T19:07:01.931Z,18.30
2018-06-25T19:10:06.613Z,18.30
2018-06-25T19:13:11.295Z,18.20
2018-06-25T19:16:16.363Z,18.10
2018-06-25T19:19:21.094Z,18.00
2018-06-25T19:22:25.962Z,18.00
2018-06-25T19:25:30.894Z,18.00
2018-06-25T19:28:36.069Z,18.00
2018-06-25T19:34:45.489Z,18.00
2018-06-25T19:40:54.613Z,17.70
2018-06-25T19:43:59.479Z,17.60
2018-06-25T19:47:04.483Z,17.40
2018-06-25T19:50:09.370Z,17.30
2018-06-25T19:53:14.150Z,17.20
2018-06-25T19:56:19.428Z,17.20
2018-06-25T19:59:24.326Z,17.30
2018-06-25T20:02:28.889Z,17.30
2018-06-25T20:05:33.717Z,17.30
2018-06-25T20:08:40.496Z,17.30
2018-06-25T20:11:45.527Z,17.20
2018-06-25T20:14:50.290Z,17.20
2018-06-25T20:17:55.303Z,17.10
2018-06-25T20:21:00.263Z,17.10
2018-06-25T20:24:05.477Z,17.00
2018-06-25T20:27:10.740Z,17.00
2018-06-25T20:30:15.784Z,16.90
2018-06-25T20:33:20.574Z,16.90
2018-06-25T20:36:25.374Z,16.80
2018-06-25T20:39:29.834Z,16.80
2018-06-25T20:42:34.455Z,16.80
2018-06-25T20:45:39.822Z,16.70
2018-06-25T20:48:44.670Z,16.90
2018-06-25T20:51:50.539Z,16.90
2018-06-25T20:54:55.689Z,16.80
2018-06-25T20:58:00.474Z,16.90
2018-06-25T21:01:05.511Z,16.70
2018-06-25T21:04:10.354Z,16.40
2018-06-25T21:07:14.871Z,16.30
2018-06-25T21:10:19.964Z,16.20
2018-06-25T21:13:24.761Z,16.10
2018-06-25T21:16:29.644Z,16.10
2018-06-25T21:19:34.529Z,16.10
2018-06-25T21:22:39.779Z,16.00
2018-06-25T21:25:44.771Z,15.80
2018-06-25T21:28:49.769Z,15.80
2018-06-25T21:31:55.268Z,16.00
2018-06-25T21:35:00.073Z,16.10
2018-06-25T21:38:05.160Z,16.10
2018-06-25T21:41:09.893Z,15.90
2018-06-25T21:44:14.844Z,15.90
2018-06-25T21:47:19.724Z,15.80
2018-06-25T21:50:24.690Z,15.90
2018-06-25T21:53:29.766Z,15.80
2018-06-25T21:56:34.517Z,15.90
2018-06-25T21:59:40.458Z,15.90
2018-06-25T22:02:44.864Z,15.90
2018-06-25T22:05:50.364Z,15.80
2018-06-25T22:08:55.043Z,15.70
2018-06-25T22:11:59.544Z,15.70
2018-06-25T22:15:04.552Z,15.80
2018-06-25T22:18:09.761Z,16.00
2018-06-25T22:21:14.352Z,16.00
2018-06-25T22:24:19.256Z,16.00
2018-06-25T22:27:24.525Z,16.00
2018-06-25T22:30:29.571Z,16.10
2018-06-25T22:33:34.636Z,16.10
2018-06-25T22:36:40.521Z,15.90
2018-06-25T22:39:45.713Z,15.80
2018-06-25T22:42:51.236Z,15.70
2018-06-25T22:45:55.969Z,15.80
2018-06-25T22:49:00.412Z,15.70
2018-06-25T22:52:04.891Z,15.70
2018-06-25T22:55:09.665Z,15.80
2018-06-25T22:58:14.125Z,15.80
2018-06-25T23:01:19.161Z,15.80
2018-06-25T23:04:23.707Z,15.80
2018-06-25T23:07:28.353Z,15.90
2018-06-25T23:10:32.939Z,15.80
2018-06-25T23:13:37.716Z,15.80
2018-06-25T23:16:42.604Z,15.70
2018-06-25T23:19:47.706Z,15.80
2018-06-25T23:22:56.811Z,15.80
2018-06-25T23:26:01.643Z,15.80
2018-06-25T23:29:06.284Z,15.80
2018-06-25T23:32:11.206Z,15.90
2018-06-25T23:35:16.290Z,15.90
2018-06-25T23:38:21.227Z,15.90
2018-06-25T23:41:26.162Z,15.70
2018-06-25T23:44:31.339Z,15.70
2018-06-25T23:47:36.195Z,15.80
2018-06-25T23:50:41.164Z,15.80
2018-06-25T23:53:46.134Z,15.80
2018-06-25T23:56:50.833Z,15.80
2018-06-25T23:59:55.252Z,15.80
